createdAt,value
2022-09-18T00:01:32.304Z,97047.75
2022-09-18T00:04:02.597Z,97051.03
2022-09-18T00:06:38.305Z,97052.22
2022-09-18T00:09:08.957Z,97037.38
2022-09-18T00:11:39.010Z,97035.13
2022-09-18T00:14:16.308Z,97041.69
2022-09-18T00:16:43.391Z,97021.13
2022-09-18T00:19:11.546Z,97050.44
2022-09-18T00:21:44.455Z,97053.16
2022-09-18T00:24:12.002Z,97054.19
2022-09-18T00:26:40.022Z,97058.41
2022-09-18T00:29:09.412Z,97050.25
2022-09-18T00:31:38.233Z,97070.59
2022-09-18T00:34:11.110Z,97056.34
2022-09-18T00:36:40.545Z,97048.69
2022-09-18T00:39:08.747Z,97074.69
2022-09-18T00:41:40.953Z,97077.44
2022-09-18T00:44:31.489Z,97079.59
2022-09-18T00:47:12.541Z,97074.16
2022-09-18T00:49:51.313Z,97056.59
2022-09-18T00:52:23.541Z,97053.13
2022-09-18T00:54:55.147Z,97058.09
2022-09-18T00:57:30.277Z,97085.06
2022-09-18T00:59:58.477Z,97091.53
2022-09-18T01:02:25.183Z,97062.88
2022-09-18T01:04:53.353Z,97047.88
2022-09-18T01:07:47.948Z,97087.38
2022-09-18T01:10:48.213Z,97044.88
2022-09-18T01:13:50.921Z,97047.34
2022-09-18T01:16:45.139Z,97080.81
2022-09-18T01:19:26.932Z,97080.28
2022-09-18T01:22:31.185Z,97077.03
2022-09-18T01:25:16.957Z,97052.09
2022-09-18T01:28:08.834Z,97069.84
2022-09-18T01:30:41.840Z,97065.97
2022-09-18T01:33:19.629Z,97031.94
2022-09-18T01:35:52.838Z,97033.66
2022-09-18T01:38:21.968Z,97052.13
2022-09-18T01:40:54.348Z,97047.72
2022-09-18T01:43:23.193Z,97028.41
2022-09-18T01:45:54.496Z,97051.78
2022-09-18T01:49:02.532Z,97048.63
2022-09-18T01:51:52.685Z,97055.16
2022-09-18T01:54:24.970Z,97033.31
2022-09-18T01:57:10.447Z,97043.75
2022-09-18T01:59:42.926Z,97014.63
2022-09-18T02:02:17.297Z,97051.72
2022-09-18T02:04:52.530Z,97042.09
2022-09-18T02:07:29.816Z,97050.28
2022-09-18T02:10:02.623Z,97018.19
2022-09-18T02:12:33.145Z,97031.88
2022-09-18T02:15:03.466Z,97054.50
2022-09-18T02:17:39.461Z,97046.84
2022-09-18T02:20:15.982Z,97076.31
2022-09-18T02:22:46.548Z,97052.31
2022-09-18T02:25:18.898Z,97062.06
2022-09-18T02:27:47.711Z,97071.00
2022-09-18T02:30:15.578Z,97047.63
2022-09-18T02:32:42.234Z,97064.97
2022-09-18T02:35:10.367Z,97088.09
2022-09-18T02:38:01.186Z,97082.16
2022-09-18T02:40:46.721Z,97078.16
2022-09-18T02:43:32.258Z,97080.06
2022-09-18T02:46:20.321Z,97061.28
2022-09-18T02:49:15.232Z,97079.03
2022-09-18T02:52:03.384Z,97078.78
2022-09-18T02:54:47.169Z,97069.41
2022-09-18T02:57:25.684Z,97084.72
2022-09-18T03:00:01.839Z,97064.75
2022-09-18T03:02:29.196Z,97093.53
2022-09-18T03:04:56.223Z,97065.78
2022-09-18T03:07:24.098Z,97090.84
2022-09-18T03:09:50.723Z,97095.53
2022-09-18T03:12:17.388Z,97093.09
2022-09-18T03:14:44.110Z,97099.91
2022-09-18T03:17:11.664Z,97070.91
2022-09-18T03:19:38.483Z,97067.25
2022-09-18T03:22:07.797Z,97094.75
2022-09-18T03:24:38.124Z,97129.03
2022-09-18T03:27:05.587Z,97129.22
2022-09-18T03:29:32.237Z,97119.25
2022-09-18T03:32:01.484Z,97111.28
2022-09-18T03:34:29.357Z,97133.34
2022-09-18T03:36:55.981Z,97140.78
2022-09-18T03:39:22.709Z,97130.56
2022-09-18T03:41:49.401Z,97126.88
2022-09-18T03:44:16.031Z,97138.91
2022-09-18T03:46:42.698Z,97148.97
2022-09-18T03:49:09.355Z,97148.97
2022-09-18T03:51:35.990Z,97141.00
2022-09-18T03:54:02.663Z,97112.00
2022-09-18T03:56:29.524Z,97140.09
2022-09-18T03:58:56.152Z,97127.50
2022-09-18T04:01:22.932Z,97130.41
2022-09-18T04:03:50.185Z,97126.44
2022-09-18T04:06:17.366Z,97121.69
2022-09-18T04:08:43.981Z,97113.72
2022-09-18T04:11:15.958Z,97116.44
2022-09-18T04:13:42.704Z,97113.50
2022-09-18T04:16:09.615Z,97140.94
2022-09-18T04:18:38.831Z,97172.28
2022-09-18T04:21:05.662Z,97200.69
2022-09-18T04:23:35.515Z,97163.09
2022-09-18T04:26:09.376Z,97190.81
2022-09-18T04:28:39.075Z,97181.06
2022-09-18T04:31:06.064Z,97193.69
2022-09-18T04:33:35.049Z,97224.00
2022-09-18T04:36:01.880Z,97227.88
2022-09-18T04:38:29.568Z,97239.50
2022-09-18T04:40:57.566Z,97240.66
2022-09-18T04:43:25.076Z,97283.19
2022-09-18T04:45:52.794Z,97266.94
2022-09-18T04:48:20.301Z,97294.00
2022-09-18T04:50:47.830Z,97311.50
2022-09-18T04:53:15.438Z,97298.13
2022-09-18T04:55:46.541Z,97321.16
2022-09-18T04:58:15.108Z,97336.13
2022-09-18T05:00:42.254Z,97308.53
2022-09-18T05:03:09.582Z,97331.63
2022-09-18T05:05:36.354Z,97328.66
2022-09-18T05:08:03.670Z,97369.78
2022-09-18T05:10:30.972Z,97348.97
2022-09-18T05:13:00.669Z,97335.75
2022-09-18T05:15:28.016Z,97364.19
2022-09-18T05:18:02.247Z,97369.19
2022-09-18T05:20:30.214Z,97375.72
2022-09-18T05:22:57.653Z,97400.03
2022-09-18T05:25:29.799Z,97376.75
2022-09-18T05:27:58.637Z,97379.38
2022-09-18T05:30:26.806Z,97375.00
2022-09-18T05:33:02.243Z,97380.22
2022-09-18T05:35:31.260Z,97411.34
2022-09-18T05:37:58.183Z,97358.84
2022-09-18T05:40:27.911Z,97386.00
2022-09-18T05:42:57.762Z,97380.19
2022-09-18T05:45:25.129Z,97367.47
2022-09-18T05:48:03.664Z,97387.16
2022-09-18T05:50:31.165Z,97434.31
2022-09-18T05:53:09.796Z,97427.81
2022-09-18T05:55:41.089Z,97415.13
2022-09-18T05:58:14.896Z,97420.47
2022-09-18T06:00:44.915Z,97433.41
2022-09-18T06:03:13.843Z,97410.97
2022-09-18T06:05:53.858Z,97421.81
2022-09-18T06:08:21.921Z,97452.13
2022-09-18T06:10:48.913Z,97440.72
2022-09-18T06:13:18.227Z,97430.28
2022-09-18T06:15:52.580Z,97412.94
2022-09-18T06:18:21.926Z,97483.69
2022-09-18T06:20:59.021Z,97487.59
2022-09-18T06:23:27.231Z,97492.97
2022-09-18T06:26:00.500Z,97493.94
2022-09-18T06:28:28.115Z,97495.94
2022-09-18T06:30:56.005Z,97476.94
2022-09-18T06:33:24.283Z,97495.47
2022-09-18T06:35:54.148Z,97495.69
2022-09-18T06:38:21.006Z,97513.81
2022-09-18T06:40:50.706Z,97532.84
2022-09-18T06:43:20.414Z,97544.00
2022-09-18T06:45:55.235Z,97506.50
2022-09-18T06:48:29.782Z,97505.44
2022-09-18T06:50:59.651Z,97558.06
2022-09-18T06:53:26.961Z,97545.94
2022-09-18T06:56:03.566Z,97589.94
2022-09-18T06:58:30.475Z,97573.16
2022-09-18T07:01:01.592Z,97567.22
2022-09-18T07:03:29.629Z,97562.50
2022-09-18T07:05:56.329Z,97569.84
2022-09-18T07:08:25.354Z,97590.88
2022-09-18T07:10:52.444Z,97591.81
2022-09-18T07:13:19.147Z,97606.13
2022-09-18T07:15:48.483Z,97594.09
2022-09-18T07:18:15.160Z,97597.88
2022-09-18T07:20:41.847Z,97597.53
2022-09-18T07:23:09.519Z,97633.59
2022-09-18T07:25:36.355Z,97618.97
2022-09-18T07:28:11.313Z,97643.31
2022-09-18T07:30:40.212Z,97622.53
2022-09-18T07:33:10.010Z,97660.28
2022-09-18T07:35:39.219Z,97616.84
2022-09-18T07:38:07.474Z,97655.91
2022-09-18T07:40:34.992Z,97679.22
2022-09-18T07:43:03.271Z,97684.31
2022-09-18T07:45:30.529Z,97691.16
2022-09-18T07:47:57.425Z,97683.09
2022-09-18T07:50:24.057Z,97669.69
2022-09-18T07:52:56.514Z,97681.38
2022-09-18T07:55:24.414Z,97654.25
2022-09-18T07:58:01.915Z,97683.44
2022-09-18T08:00:35.130Z,97681.69
2022-09-18T08:03:21.880Z,97663.47
2022-09-18T08:05:50.529Z,97652.00
2022-09-18T08:08:17.233Z,97664.56
2022-09-18T08:10:45.248Z,97668.25
2022-09-18T08:13:14.235Z,97658.63
2022-09-18T08:15:46.007Z,97698.03
2022-09-18T08:18:12.738Z,97634.97
2022-09-18T08:20:39.450Z,97698.44
2022-09-18T08:23:11.589Z,97686.56
2022-09-18T08:25:38.726Z,97659.78
2022-09-18T08:28:07.216Z,97653.97
2022-09-18T08:30:35.343Z,97698.00
2022-09-18T08:33:06.815Z,97694.47
2022-09-18T08:35:37.927Z,97663.94
2022-09-18T08:38:04.937Z,97688.59
2022-09-18T08:41:01.838Z,97702.53
2022-09-18T08:43:28.488Z,97689.19
2022-09-18T08:46:12.066Z,97724.81
2022-09-18T08:48:46.299Z,97717.09
2022-09-18T08:51:15.899Z,97710.16
2022-09-18T08:53:48.686Z,97723.63
2022-09-18T08:56:24.794Z,97732.69
2022-09-18T08:59:06.296Z,97733.44
2022-09-18T09:01:45.867Z,97744.28
2022-09-18T09:04:25.159Z,97728.00
2022-09-18T09:07:29.979Z,97732.25
2022-09-18T09:10:24.164Z,97741.81
2022-09-18T09:13:19.152Z,97744.59
2022-09-18T09:16:13.840Z,97757.97
2022-09-18T09:19:08.303Z,97731.31
2022-09-18T09:22:06.160Z,97760.88
2022-09-18T09:24:34.201Z,97750.22
2022-09-18T09:27:10.705Z,97753.34
2022-09-18T09:29:43.957Z,97751.63
2022-09-18T09:32:28.112Z,97742.28
2022-09-18T09:35:05.313Z,97755.00
2022-09-18T09:37:43.714Z,97738.28
2022-09-18T09:40:37.721Z,97728.84
2022-09-18T09:43:16.733Z,97767.63
2022-09-18T09:45:52.057Z,97779.72
2022-09-18T09:48:21.505Z,97775.28
2022-09-18T09:50:59.515Z,97769.56
2022-09-18T09:53:27.993Z,97763.19
2022-09-18T09:58:59.263Z,97754.09
2022-09-18T10:01:35.801Z,97759.59
2022-09-18T10:04:15.769Z,97757.22
2022-09-18T10:07:23.948Z,97765.13
2022-09-18T10:10:03.478Z,97753.97
2022-09-18T10:12:50.626Z,97726.31
2022-09-18T10:15:25.851Z,97740.63
2022-09-18T10:17:57.083Z,97757.47
2022-09-18T10:20:30.082Z,97765.16
2022-09-18T10:23:06.156Z,97763.44
2022-09-18T10:26:02.326Z,97772.72
2022-09-18T10:28:29.776Z,97747.94
2022-09-18T10:31:14.656Z,97765.63
2022-09-18T10:33:45.634Z,97771.03
2022-09-18T10:36:41.602Z,97758.81
2022-09-18T10:39:37.676Z,97772.59
2022-09-18T10:42:06.392Z,97773.88
2022-09-18T10:44:50.978Z,97782.09
2022-09-18T10:47:18.918Z,97777.09
2022-09-18T10:49:51.685Z,97782.50
2022-09-18T10:52:32.625Z,97786.25
2022-09-18T10:55:06.425Z,97796.13
2022-09-18T10:57:40.348Z,97783.00
2022-09-18T11:00:13.195Z,97784.09
2022-09-18T11:02:44.844Z,97775.59
2022-09-18T11:05:20.179Z,97798.88
2022-09-18T11:08:00.269Z,97792.81
2022-09-18T11:10:33.263Z,97797.28
2022-09-18T11:13:02.871Z,97785.78
2022-09-18T11:15:32.257Z,97803.28
2022-09-18T11:18:06.544Z,97779.66
2022-09-18T11:20:43.088Z,97788.91
2022-09-18T11:23:20.885Z,97800.78
2022-09-18T11:25:47.778Z,97787.25
2022-09-18T11:28:23.495Z,97811.84
2022-09-18T11:31:02.227Z,97805.84
2022-09-18T11:33:52.969Z,97791.03
2022-09-18T11:36:32.328Z,97789.91
2022-09-18T11:39:01.813Z,97791.28
2022-09-18T11:41:35.206Z,97749.47
2022-09-18T11:44:15.327Z,97808.00
2022-09-18T11:47:14.396Z,97804.94
2022-09-18T11:52:44.029Z,97812.59
2022-09-18T11:55:35.270Z,97807.16
2022-09-18T11:58:10.085Z,97808.75
2022-09-18T12:00:44.378Z,97802.97
2022-09-18T12:03:27.299Z,97810.22
2022-09-18T12:06:23.199Z,97805.34
2022-09-18T12:08:54.224Z,97814.34
2022-09-18T12:11:23.259Z,97816.25
2022-09-18T12:14:20.580Z,97814.75
2022-09-18T12:17:00.262Z,97816.31
2022-09-18T12:19:40.625Z,97817.13
2022-09-18T12:22:15.898Z,97803.97
2022-09-18T12:24:42.661Z,97788.34
2022-09-18T12:27:15.473Z,97811.38
2022-09-18T12:29:50.589Z,97822.69
2022-09-18T12:32:35.892Z,97821.69
2022-09-18T12:35:12.898Z,97826.84
2022-09-18T12:38:10.813Z,97831.88
2022-09-18T12:40:56.794Z,97832.13
2022-09-18T12:43:52.588Z,97820.56
2022-09-18T12:47:00.323Z,97820.50
2022-09-18T12:50:07.692Z,97830.16
2022-09-18T12:53:09.045Z,97825.78
2022-09-18T12:56:16.810Z,97831.09
2022-09-18T12:59:11.120Z,97819.56
2022-09-18T13:01:57.255Z,97819.09
2022-09-18T13:04:30.745Z,97819.50
2022-09-18T13:07:06.224Z,97813.50
2022-09-18T13:09:58.765Z,97815.72
2022-09-18T13:12:35.348Z,97807.53
2022-09-18T13:15:10.413Z,97817.16
2022-09-18T13:17:50.825Z,97825.41
2022-09-18T13:20:30.990Z,97821.22
2022-09-18T13:23:00.610Z,97823.69
2022-09-18T13:25:37.741Z,97826.44
2022-09-18T13:28:11.673Z,97830.84
2022-09-18T13:30:38.865Z,97823.66
2022-09-18T13:33:05.776Z,97815.03
2022-09-18T13:35:35.680Z,97831.44
2022-09-18T13:38:10.334Z,97820.88
2022-09-18T13:40:40.966Z,97837.72
2022-09-18T13:43:46.788Z,97837.50
2022-09-18T13:46:50.482Z,97841.78
2022-09-18T13:49:32.871Z,97839.19
2022-09-18T13:52:37.980Z,97855.25
2022-09-18T13:55:13.402Z,97862.31
2022-09-18T13:57:43.397Z,97851.00
2022-09-18T14:00:24.183Z,97862.28
2022-09-18T14:03:12.850Z,97860.56
2022-09-18T14:05:42.041Z,97856.16
2022-09-18T14:08:24.307Z,97864.41
2022-09-18T14:11:17.643Z,97862.88
2022-09-18T14:13:54.630Z,97870.97
2022-09-18T14:16:22.441Z,97871.28
2022-09-18T14:18:49.154Z,97858.59
2022-09-18T14:21:18.927Z,97879.56
2022-09-18T14:23:50.467Z,97876.31
2022-09-18T14:26:32.358Z,97876.63
2022-09-18T14:32:22.555Z,97879.41
2022-09-18T14:35:18.444Z,97903.16
2022-09-18T14:37:45.690Z,97886.00
2022-09-18T14:40:20.920Z,97890.63
2022-09-18T14:42:48.736Z,97903.63
2022-09-18T14:45:22.744Z,97900.56
2022-09-18T14:47:51.550Z,97879.53
2022-09-18T14:50:21.064Z,97908.06
2022-09-18T14:52:47.832Z,97876.50
2022-09-18T14:55:23.193Z,97890.69
2022-09-18T14:57:59.168Z,97908.25
2022-09-18T15:00:30.129Z,97871.75
2022-09-18T15:03:20.544Z,97890.06
2022-09-18T15:05:51.575Z,97905.75
2022-09-18T15:08:26.499Z,97894.91
2022-09-18T15:10:56.695Z,97914.38
2022-09-18T15:13:24.265Z,97890.59
2022-09-18T15:16:00.845Z,97902.69
2022-09-18T15:18:30.874Z,97907.00
2022-09-18T15:21:01.718Z,97890.38
2022-09-18T15:23:32.675Z,97906.66
2022-09-18T15:26:05.500Z,97913.69
2022-09-18T15:28:36.322Z,97911.28
2022-09-18T15:31:08.519Z,97903.81
2022-09-18T15:33:38.280Z,97917.25
2022-09-18T15:36:28.263Z,97920.38
2022-09-18T15:38:57.431Z,97921.66
2022-09-18T15:41:36.097Z,97904.78
2022-09-18T15:44:03.695Z,97922.75
2022-09-18T15:46:38.773Z,97924.19
2022-09-18T15:49:29.693Z,97910.69
2022-09-18T15:51:58.638Z,97921.41
2022-09-18T15:54:27.278Z,97946.25
2022-09-18T15:56:57.753Z,97944.72
2022-09-18T15:59:32.308Z,97933.59
2022-09-18T16:02:08.190Z,97948.66
2022-09-18T16:04:35.922Z,97938.13
2022-09-18T16:07:22.889Z,97958.78
2022-09-18T16:09:52.916Z,97931.16
2022-09-18T16:12:37.696Z,97961.28
2022-09-18T16:15:25.595Z,97969.00
2022-09-18T16:17:54.749Z,97967.13
2022-09-18T16:20:23.411Z,97955.03
2022-09-18T16:22:51.778Z,97968.31
2022-09-18T16:25:21.820Z,97971.50
2022-09-18T16:27:56.780Z,97983.38
2022-09-18T16:30:24.365Z,97978.25
2022-09-18T16:33:05.287Z,97985.47
2022-09-18T16:35:31.873Z,97994.47
2022-09-18T16:37:58.467Z,97990.00
2022-09-18T16:40:27.622Z,97989.19
2022-09-18T16:43:00.588Z,97993.03
2022-09-18T16:45:28.953Z,97986.75
2022-09-18T16:48:00.653Z,98003.47
2022-09-18T16:50:27.994Z,98006.88
2022-09-18T16:52:58.501Z,98009.34
2022-09-18T16:55:29.357Z,98015.47
2022-09-18T16:57:59.402Z,98026.91
2022-09-18T17:00:26.207Z,98008.09
2022-09-18T17:02:55.472Z,98028.38
2022-09-18T17:05:22.123Z,98010.00
2022-09-18T17:07:48.703Z,98034.84
2022-09-18T17:10:15.596Z,98055.25
2022-09-18T17:12:43.555Z,98065.50
2022-09-18T17:15:10.624Z,98071.28
2022-09-18T17:17:40.769Z,98069.41
2022-09-18T17:20:16.076Z,98093.47
2022-09-18T17:22:47.596Z,98076.03
2022-09-18T17:25:15.370Z,98082.09
2022-09-18T17:27:43.898Z,98096.44
2022-09-18T17:30:12.178Z,98086.97
2022-09-18T17:32:39.704Z,98075.59
2022-09-18T17:35:06.894Z,98097.28
2022-09-18T17:37:33.591Z,98109.88
2022-09-18T17:40:01.625Z,98083.09
2022-09-18T17:42:30.406Z,98111.25
2022-09-18T17:44:59.834Z,98121.66
2022-09-18T17:47:27.025Z,98118.63
2022-09-18T17:49:54.308Z,98120.13
2022-09-18T17:52:21.078Z,98127.75
2022-09-18T17:54:49.066Z,98118.06
2022-09-18T17:57:18.171Z,98122.66
2022-09-18T17:59:45.143Z,98139.81
2022-09-18T18:02:13.909Z,98158.59
2022-09-18T18:04:40.582Z,98156.97
2022-09-18T18:07:07.282Z,98133.66
2022-09-18T18:09:36.443Z,98168.25
2022-09-18T18:12:05.148Z,98155.34
2022-09-18T18:14:32.176Z,98174.13
2022-09-18T18:17:00.883Z,98142.06
2022-09-18T18:19:30.693Z,98152.50
2022-09-18T18:21:57.481Z,98152.50
2022-09-18T18:24:24.319Z,98157.53
2022-09-18T18:26:52.552Z,98144.84
2022-09-18T18:29:19.699Z,98187.97
2022-09-18T18:31:53.923Z,98199.72
2022-09-18T18:34:22.194Z,98170.34
2022-09-18T18:36:51.066Z,98207.03
2022-09-18T18:39:21.331Z,98203.50
2022-09-18T18:41:48.587Z,98170.56
2022-09-18T18:44:18.571Z,98205.56
2022-09-18T18:46:45.336Z,98191.00
2022-09-18T18:49:15.044Z,98198.28
2022-09-18T18:51:48.907Z,98218.53
2022-09-18T18:54:23.169Z,98201.88
2022-09-18T18:56:51.832Z,98192.06
2022-09-18T18:59:25.592Z,98172.03
2022-09-18T19:01:58.111Z,98237.16
2022-09-18T19:04:25.930Z,98195.41
2022-09-18T19:06:57.152Z,98200.66
2022-09-18T19:09:30.958Z,98232.78
2022-09-18T19:12:01.521Z,98236.56
2022-09-18T19:14:36.289Z,98216.75
2022-09-18T19:17:02.944Z,98236.16
2022-09-18T19:19:32.177Z,98238.88
2022-09-18T19:22:02.039Z,98230.09
2022-09-18T19:24:30.115Z,98238.25
2022-09-18T19:26:57.595Z,98221.97
2022-09-18T19:29:24.411Z,98217.13
2022-09-18T19:31:54.381Z,98253.09
2022-09-18T19:34:22.638Z,98236.59
2022-09-18T19:36:51.129Z,98237.63
2022-09-18T19:39:24.686Z,98250.13
2022-09-18T19:41:56.581Z,98244.31
2022-09-18T19:44:47.204Z,98246.19
2022-09-18T19:47:28.075Z,98248.28
2022-09-18T19:49:59.555Z,98227.84
2022-09-18T19:52:29.161Z,98263.28
2022-09-18T19:54:57.665Z,98251.41
2022-09-18T19:57:27.516Z,98244.50
2022-09-18T19:59:58.616Z,98230.34
2022-09-18T20:02:25.782Z,98218.22
2022-09-18T20:05:02.036Z,98264.53
2022-09-18T20:07:29.316Z,98253.72
2022-09-18T20:09:56.029Z,98252.06
2022-09-18T20:12:22.726Z,98250.38
2022-09-18T20:14:52.100Z,98241.59
2022-09-18T20:17:21.916Z,98267.13
2022-09-18T20:19:48.570Z,98267.75
2022-09-18T20:22:15.337Z,98255.63
2022-09-18T20:24:42.140Z,98242.88
2022-09-18T20:27:10.133Z,98267.50
2022-09-18T20:29:37.736Z,98259.59
2022-09-18T20:32:04.397Z,98257.94
2022-09-18T20:34:31.056Z,98281.94
2022-09-18T20:36:58.017Z,98279.66
2022-09-18T20:39:24.755Z,98291.78
2022-09-18T20:41:51.573Z,98285.72
2022-09-18T20:44:19.640Z,98295.13
2022-09-18T20:46:46.554Z,98284.91
2022-09-18T20:49:17.601Z,98302.22
2022-09-18T20:51:44.361Z,98299.53
2022-09-18T20:54:14.353Z,98340.06
2022-09-18T20:56:43.643Z,98316.06
2022-09-18T20:59:12.400Z,98315.22
2022-09-18T21:01:47.192Z,98339.63
2022-09-18T21:04:19.560Z,98341.91
2022-09-18T21:06:49.142Z,98325.59
2022-09-18T21:09:16.055Z,98307.34
2022-09-18T21:11:45.014Z,98340.53
2022-09-18T21:14:15.469Z,98337.88
2022-09-18T21:16:45.604Z,98320.72
2022-09-18T21:19:14.063Z,98355.84
2022-09-18T21:21:41.326Z,98348.66
2022-09-18T21:24:09.478Z,98328.63
2022-09-18T21:26:43.507Z,98341.75
2022-09-18T21:29:18.417Z,98368.28
2022-09-18T21:31:46.625Z,98372.00
2022-09-18T21:34:15.921Z,98372.19
2022-09-18T21:36:46.280Z,98369.13
2022-09-18T21:39:17.689Z,98377.25
2022-09-18T21:41:47.618Z,98347.91
2022-09-18T21:44:16.645Z,98374.41
2022-09-18T21:46:51.356Z,98355.09
2022-09-18T21:49:19.246Z,98354.94
2022-09-18T21:51:46.956Z,98362.63
2022-09-18T21:54:19.831Z,98374.19
2022-09-18T21:56:57.420Z,98360.22
2022-09-18T21:59:27.342Z,98353.78
2022-09-18T22:01:57.864Z,98346.00
2022-09-18T22:04:29.132Z,98367.28
2022-09-18T22:06:57.383Z,98360.50
2022-09-18T22:09:38.977Z,98345.13
2022-09-18T22:12:09.866Z,98328.16
2022-09-18T22:14:38.356Z,98346.47
2022-09-18T22:17:07.786Z,98352.59
2022-09-18T22:19:39.304Z,98310.66
2022-09-18T22:22:08.029Z,98315.50
2022-09-18T22:24:34.713Z,98334.75
2022-09-18T22:27:06.058Z,98353.75
2022-09-18T22:29:34.844Z,98362.63
2022-09-18T22:32:02.000Z,98345.63
2022-09-18T22:34:31.141Z,98339.78
2022-09-18T22:37:02.349Z,98351.38
2022-09-18T22:39:29.559Z,98338.69
2022-09-18T22:41:56.559Z,98357.63
2022-09-18T22:44:23.510Z,98351.38
2022-09-18T22:46:52.587Z,98344.69
2022-09-18T22:49:22.858Z,98341.38
2022-09-18T22:51:50.832Z,98342.75
2022-09-18T22:54:28.522Z,98336.84
2022-09-18T22:56:56.961Z,98339.13
2022-09-18T22:59:27.211Z,98322.53
2022-09-18T23:02:00.796Z,98348.13
2022-09-18T23:04:29.939Z,98342.25
2022-09-18T23:06:58.001Z,98302.25
2022-09-18T23:09:30.666Z,98347.56
2022-09-18T23:11:58.129Z,98335.91
2022-09-18T23:14:28.147Z,98336.56
2022-09-18T23:17:21.913Z,98323.16
2022-09-18T23:19:48.512Z,98291.56
2022-09-18T23:22:22.157Z,98275.28
2022-09-18T23:24:52.182Z,98320.03
2022-09-18T23:27:20.611Z,98290.44
2022-09-18T23:29:48.906Z,98330.84
2022-09-18T23:32:15.519Z,98296.59
2022-09-18T23:34:42.324Z,98312.47
2022-09-18T23:37:09.118Z,98293.03
2022-09-18T23:39:35.813Z,98293.69
2022-09-18T23:42:05.885Z,98305.66
2022-09-18T23:44:33.111Z,98320.06
2022-09-18T23:47:02.362Z,98327.59
2022-09-18T23:49:30.260Z,98315.66
2022-09-18T23:51:57.310Z,98330.44
2022-09-18T23:54:28.770Z,98333.50
2022-09-18T23:56:55.649Z,98282.69
2022-09-18T23:59:24.707Z,98324.09
